createdAt,value
2023-04-21T00:04:57.975Z,47.60
2023-04-21T00:10:03.617Z,48.10
2023-04-21T00:15:12.834Z,48.20
2023-04-21T00:20:18.182Z,48.55
2023-04-21T00:25:24.801Z,49.17
2023-04-21T00:30:30.609Z,42.75
2023-04-21T00:35:37.093Z,48.65
2023-04-21T00:40:42.537Z,41.13
2023-04-21T00:45:49.949Z,62.80
2023-04-21T00:50:56.619Z,31.33
2023-04-21T00:56:02.231Z,45.95
2023-04-21T01:01:08.348Z,57.28
2023-04-21T01:06:14.194Z,53.33
2023-04-21T01:11:19.801Z,47.08
2023-04-21T01:16:26.389Z,51.88
2023-04-21T01:21:41.967Z,58.25
2023-04-21T01:26:50.916Z,65.33
2023-04-21T01:31:56.633Z,65.60
2023-04-21T01:37:03.383Z,67.25
2023-04-21T01:42:09.310Z,67.72
2023-04-21T01:47:15.805Z,66.00
2023-04-21T01:52:22.048Z,66.50
2023-04-21T01:57:27.604Z,64.53
2023-04-21T02:02:33.567Z,67.55
2023-04-21T02:07:39.709Z,70.80
2023-04-21T02:12:45.412Z,64.65
2023-04-21T02:22:57.009Z,71.77
2023-04-21T02:28:02.686Z,105.43
2023-04-21T02:33:11.798Z,104.65
2023-04-21T02:38:17.946Z,68.82
2023-04-21T02:43:23.738Z,65.38
2023-04-21T02:48:29.881Z,67.10
2023-04-21T02:53:36.104Z,76.82
2023-04-21T02:58:42.167Z,63.05
2023-04-21T03:03:48.347Z,66.68
2023-04-21T03:08:54.132Z,69.03
2023-04-21T03:19:04.658Z,65.32
2023-04-21T03:24:10.823Z,57.05
2023-04-21T03:29:17.362Z,75.97
2023-04-21T03:34:24.263Z,74.85
2023-04-21T03:39:36.318Z,78.78
2023-04-21T03:44:44.545Z,69.88
2023-04-21T03:49:50.287Z,69.82
2023-04-21T03:54:55.925Z,74.53
2023-04-21T04:00:01.337Z,73.82
2023-04-21T04:10:23.197Z,71.33
2023-04-21T04:20:34.595Z,83.38
2023-04-21T04:25:41.084Z,81.28
2023-04-21T04:30:46.934Z,77.70
2023-04-21T04:35:52.777Z,84.18
2023-04-21T04:41:00.477Z,87.10
2023-04-21T04:46:07.062Z,89.70
2023-04-21T04:51:14.597Z,86.93
2023-04-21T04:56:20.344Z,73.32
2023-04-21T05:06:40.052Z,78.38
2023-04-21T05:16:51.916Z,87.00
2023-04-21T05:27:11.153Z,91.18
2023-04-21T05:32:16.953Z,86.43
2023-04-21T05:37:22.581Z,85.38
2023-04-21T05:42:28.064Z,84.03
2023-04-21T05:47:33.782Z,89.65
2023-04-21T05:57:45.726Z,83.82
2023-04-21T06:02:54.288Z,87.50
2023-04-21T06:07:59.811Z,80.57
2023-04-21T06:13:05.284Z,83.20
2023-04-21T06:18:11.322Z,84.93
2023-04-21T06:23:17.595Z,71.30
2023-04-21T06:28:23.526Z,61.90
2023-04-21T06:33:29.833Z,78.18
2023-04-21T06:38:35.655Z,55.63
2023-04-21T06:43:41.287Z,88.22
2023-04-21T06:48:49.678Z,79.15
2023-04-21T06:53:55.063Z,89.22
2023-04-21T07:04:12.587Z,80.05
2023-04-21T07:09:18.862Z,87.00
2023-04-21T07:14:24.857Z,85.00
2023-04-21T07:19:31.747Z,73.70
2023-04-21T07:25:53.626Z,75.95
2023-04-21T07:31:00.953Z,83.25
2023-04-21T07:36:08.330Z,81.13
2023-04-21T07:41:15.047Z,82.30
2023-04-21T07:46:20.600Z,83.22
2023-04-21T07:51:30.814Z,90.32
2023-04-21T08:03:07.017Z,87.53
2023-04-21T08:13:47.212Z,93.82
2023-04-21T08:18:53.057Z,87.30
2023-04-21T08:24:02.549Z,89.75
2023-04-21T08:29:11.775Z,86.40
2023-04-21T08:34:18.150Z,90.55
2023-04-21T08:39:29.590Z,72.97
2023-04-21T08:56:23.613Z,86.97
2023-04-21T09:01:54.649Z,85.80
2023-04-21T09:07:35.073Z,80.38
2023-04-21T09:12:44.118Z,85.75
2023-04-21T09:17:53.183Z,91.85
2023-04-21T09:23:26.659Z,79.30
2023-04-21T09:29:11.724Z,81.85
2023-04-21T09:34:31.763Z,72.78
2023-04-21T09:39:52.732Z,82.38
2023-04-21T09:46:57.942Z,76.80
2023-04-21T09:51:49.068Z,80.57
2023-04-21T09:57:00.719Z,81.53
2023-04-21T10:02:09.016Z,78.35
2023-04-21T10:07:18.244Z,84.25
2023-04-21T10:12:25.452Z,82.53
2023-04-21T10:17:31.053Z,77.72
2023-04-21T10:22:50.894Z,77.47
2023-04-21T10:27:57.089Z,77.20
2023-04-21T10:33:34.498Z,76.93
2023-04-21T10:38:48.372Z,76.68
2023-04-21T10:43:55.877Z,79.82
2023-04-21T10:49:29.313Z,76.50
2023-04-21T11:01:06.614Z,86.10
2023-04-21T11:21:13.410Z,72.93
2023-04-21T11:26:19.720Z,75.05
2023-04-21T11:31:35.347Z,79.28
2023-04-21T11:37:23.374Z,77.28
2023-04-21T11:42:55.229Z,78.53
2023-04-21T11:48:22.779Z,77.20
2023-04-21T11:53:28.621Z,79.25
2023-04-21T11:58:35.444Z,78.82
2023-04-21T12:03:41.734Z,71.22
2023-04-21T12:08:47.638Z,75.43
2023-04-21T12:13:54.155Z,78.50
2023-04-21T12:31:25.914Z,85.30
2023-04-21T12:36:33.908Z,70.65
2023-04-21T12:41:46.480Z,69.43
2023-04-21T12:46:54.034Z,67.88
2023-04-21T12:52:02.637Z,60.35
2023-04-21T12:57:26.144Z,68.10
2023-04-21T13:02:32.876Z,66.65
2023-04-21T13:07:43.306Z,65.75
2023-04-21T13:12:49.074Z,61.70
2023-04-21T13:17:54.787Z,65.60
2023-04-21T13:23:14.598Z,65.90
2023-04-21T13:28:23.832Z,63.70
2023-04-21T13:33:29.571Z,65.40
2023-04-21T13:38:35.973Z,64.88
2023-04-21T13:43:47.266Z,66.40
2023-04-21T13:50:23.624Z,63.67
2023-04-21T13:55:32.366Z,58.27
2023-04-21T14:00:41.012Z,57.97
2023-04-21T14:05:47.356Z,59.85
2023-04-21T14:11:19.803Z,61.78
2023-04-21T14:16:26.296Z,59.47
2023-04-21T14:21:39.262Z,57.92
2023-04-21T14:26:47.011Z,57.70
2023-04-21T14:31:56.056Z,63.67
2023-04-21T14:37:02.029Z,51.20
2023-04-21T14:42:07.672Z,56.30
2023-04-21T14:52:20.482Z,51.83
2023-04-21T14:57:26.343Z,53.45
2023-04-21T15:02:32.460Z,49.83
2023-04-21T15:07:38.117Z,51.92
2023-04-21T15:12:45.612Z,50.05
2023-04-21T15:17:51.268Z,51.88
2023-04-21T15:22:57.037Z,48.50
2023-04-21T15:33:13.008Z,43.88
2023-04-21T15:38:18.580Z,34.47
2023-04-21T15:43:25.841Z,43.30
2023-04-21T15:48:33.167Z,37.05
2023-04-21T15:53:44.283Z,51.53
2023-04-21T15:58:52.895Z,35.92
2023-04-21T16:03:59.640Z,47.38
2023-04-21T16:09:25.274Z,49.00
2023-04-21T16:14:42.768Z,39.47
2023-04-21T16:19:57.042Z,47.03
2023-04-21T16:25:03.076Z,37.83
2023-04-21T16:30:09.397Z,37.80
2023-04-21T16:35:15.398Z,49.67
2023-04-21T16:40:21.299Z,47.17
2023-04-21T16:45:27.077Z,37.75
2023-04-21T16:50:32.635Z,51.50
2023-04-21T16:55:38.452Z,50.47
2023-04-21T17:00:43.967Z,50.70
2023-04-21T17:05:53.221Z,37.60
2023-04-21T17:11:00.426Z,43.03
2023-04-21T17:16:06.289Z,41.63
2023-04-21T17:26:17.153Z,43.20
2023-04-21T17:37:18.541Z,33.63
2023-04-21T17:42:24.185Z,37.65
2023-04-21T17:47:29.756Z,39.03
2023-04-21T17:52:35.039Z,42.63
2023-04-21T17:57:40.646Z,42.00
2023-04-21T18:02:46.404Z,41.40
2023-04-21T18:07:52.565Z,45.72
2023-04-21T18:12:58.114Z,37.08
2023-04-21T18:18:03.866Z,43.65
2023-04-21T18:28:15.835Z,34.75
2023-04-21T18:33:21.122Z,42.20
2023-04-21T18:38:26.698Z,41.03
2023-04-21T18:43:32.853Z,45.15
2023-04-21T18:48:38.442Z,44.05
2023-04-21T18:53:45.010Z,42.95
2023-04-21T18:58:50.556Z,42.28
2023-04-21T19:03:56.889Z,41.42
2023-04-21T19:09:02.433Z,45.60
2023-04-21T19:14:07.893Z,37.22
2023-04-21T19:19:13.834Z,46.28
2023-04-21T19:29:24.529Z,48.15
2023-04-21T19:34:29.882Z,47.47
2023-04-21T19:39:35.517Z,40.30
2023-04-21T19:44:41.203Z,38.33
2023-04-21T19:49:47.027Z,48.13
2023-04-21T19:59:58.093Z,36.33
2023-04-21T20:05:03.705Z,43.30
2023-04-21T20:15:15.306Z,45.53
2023-04-21T20:20:20.872Z,36.15
2023-04-21T20:25:26.202Z,38.13
2023-04-21T20:30:31.810Z,41.43
2023-04-21T20:35:40.899Z,35.75
2023-04-21T20:40:46.487Z,38.13
2023-04-21T20:50:57.951Z,37.37
2023-04-21T20:56:03.128Z,37.15
2023-04-21T21:01:08.893Z,35.35
2023-04-21T21:06:16.000Z,44.83
2023-04-21T21:11:23.186Z,47.45
2023-04-21T21:16:28.619Z,39.53
2023-04-21T21:21:33.932Z,34.78
2023-04-21T21:26:42.573Z,39.17
2023-04-21T21:31:48.536Z,33.60
2023-04-21T21:36:53.850Z,32.50
2023-04-21T21:41:59.893Z,42.73
2023-04-21T21:47:05.264Z,38.33
2023-04-21T21:52:10.603Z,32.90
2023-04-21T21:57:16.011Z,40.10
2023-04-21T22:02:21.879Z,48.45
2023-04-21T22:07:27.751Z,47.05
2023-04-21T22:17:41.629Z,44.45
2023-04-21T22:27:51.797Z,41.42
2023-04-21T22:32:57.976Z,42.00
2023-04-21T22:38:03.409Z,37.17
2023-04-21T22:43:09.084Z,36.03
2023-04-21T22:48:15.791Z,40.55
2023-04-21T22:53:21.413Z,49.47
2023-04-21T22:58:27.712Z,47.42
2023-04-21T23:03:33.435Z,41.95
2023-04-21T23:08:38.991Z,52.95
2023-04-21T23:13:44.594Z,49.03
2023-04-21T23:18:50.859Z,52.17
2023-04-21T23:23:56.155Z,48.45
2023-04-21T23:29:01.752Z,44.83
2023-04-21T23:34:07.832Z,42.35
2023-04-21T23:39:13.461Z,45.00
2023-04-21T23:44:19.090Z,49.22
2023-04-21T23:49:24.727Z,49.35
2023-04-21T23:54:30.043Z,41.15
2023-04-21T23:59:36.019Z,42.42
